sensor_id;sensor_type;location;lat;lon;timestamp;temperature;humidity
49238;DHT22;35069;47.906;1.892;2022-07-10T00:00:19;21.20;63.90
49238;DHT22;35069;47.906;1.892;2022-07-10T00:02:46;21.20;63.90
49238;DHT22;35069;47.906;1.892;2022-07-10T00:05:12;21.30;63.70
49238;DHT22;35069;47.906;1.892;2022-07-10T00:07:38;21.20;63.60
49238;DHT22;35069;47.906;1.892;2022-07-10T00:10:04;21.00;63.80
49238;DHT22;35069;47.906;1.892;2022-07-10T00:12:30;21.00;64.10
49238;DHT22;35069;47.906;1.892;2022-07-10T00:14:56;20.90;63.90
49238;DHT22;35069;47.906;1.892;2022-07-10T00:17:22;20.80;64.20
49238;DHT22;35069;47.906;1.892;2022-07-10T00:19:47;20.80;64.20
49238;DHT22;35069;47.906;1.892;2022-07-10T00:22:13;20.80;64.30
49238;DHT22;35069;47.906;1.892;2022-07-10T00:24:38;20.80;64.30
49238;DHT22;35069;47.906;1.892;2022-07-10T00:27:04;20.90;64.00
49238;DHT22;35069;47.906;1.892;2022-07-10T00:29:30;20.70;64.10
49238;DHT22;35069;47.906;1.892;2022-07-10T00:31:55;20.50;64.40
49238;DHT22;35069;47.906;1.892;2022-07-10T00:34:21;20.60;64.50
49238;DHT22;35069;47.906;1.892;2022-07-10T00:36:46;20.60;64.40
49238;DHT22;35069;47.906;1.892;2022-07-10T00:39:12;20.60;64.60
49238;DHT22;35069;47.906;1.892;2022-07-10T00:41:37;20.60;64.60
49238;DHT22;35069;47.906;1.892;2022-07-10T00:44:03;20.50;64.70
49238;DHT22;35069;47.906;1.892;2022-07-10T00:46:30;20.50;64.80
49238;DHT22;35069;47.906;1.892;2022-07-10T00:48:57;20.40;65.00
49238;DHT22;35069;47.906;1.892;2022-07-10T00:51:25;20.50;65.00
49238;DHT22;35069;47.906;1.892;2022-07-10T00:53:51;20.50;64.90
49238;DHT22;35069;47.906;1.892;2022-07-10T00:56:20;20.40;65.00
49238;DHT22;35069;47.906;1.892;2022-07-10T00:58:47;20.30;65.30
49238;DHT22;35069;47.906;1.892;2022-07-10T01:01:14;20.10;65.50
49238;DHT22;35069;47.906;1.892;2022-07-10T01:03:40;20.00;66.10
49238;DHT22;35069;47.906;1.892;2022-07-10T01:06:06;19.80;66.50
49238;DHT22;35069;47.906;1.892;2022-07-10T01:08:32;19.80;66.60
49238;DHT22;35069;47.906;1.892;2022-07-10T01:10:58;19.70;67.20
49238;DHT22;35069;47.906;1.892;2022-07-10T01:13:24;19.60;67.30
49238;DHT22;35069;47.906;1.892;2022-07-10T01:15:50;19.80;67.30
49238;DHT22;35069;47.906;1.892;2022-07-10T01:18:16;19.80;67.20
49238;DHT22;35069;47.906;1.892;2022-07-10T01:20:42;19.70;67.30
49238;DHT22;35069;47.906;1.892;2022-07-10T01:23:08;19.70;67.40
49238;DHT22;35069;47.906;1.892;2022-07-10T01:25:33;19.70;67.40
49238;DHT22;35069;47.906;1.892;2022-07-10T01:27:59;19.80;67.30
49238;DHT22;35069;47.906;1.892;2022-07-10T01:30:25;19.60;67.50
49238;DHT22;35069;47.906;1.892;2022-07-10T01:32:51;19.60;67.80
49238;DHT22;35069;47.906;1.892;2022-07-10T01:35:18;19.60;67.90
49238;DHT22;35069;47.906;1.892;2022-07-10T01:37:44;19.60;68.00
49238;DHT22;35069;47.906;1.892;2022-07-10T01:40:10;19.50;68.10
49238;DHT22;35069;47.906;1.892;2022-07-10T01:42:37;19.40;68.50
49238;DHT22;35069;47.906;1.892;2022-07-10T01:45:07;19.40;68.60
49238;DHT22;35069;47.906;1.892;2022-07-10T01:47:33;19.40;68.80
49238;DHT22;35069;47.906;1.892;2022-07-10T01:49:59;19.30;68.90
49238;DHT22;35069;47.906;1.892;2022-07-10T01:52:24;19.30;69.10
49238;DHT22;35069;47.906;1.892;2022-07-10T01:54:50;19.20;69.20
49238;DHT22;35069;47.906;1.892;2022-07-10T01:57:16;19.10;69.50
49238;DHT22;35069;47.906;1.892;2022-07-10T01:59:42;19.20;69.60
49238;DHT22;35069;47.906;1.892;2022-07-10T02:02:07;19.10;69.80
49238;DHT22;35069;47.906;1.892;2022-07-10T02:04:33;19.10;70.00
49238;DHT22;35069;47.906;1.892;2022-07-10T02:07:12;19.20;69.90
49238;DHT22;35069;47.906;1.892;2022-07-10T02:09:39;19.10;69.90
49238;DHT22;35069;47.906;1.892;2022-07-10T02:12:06;19.20;70.50
49238;DHT22;35069;47.906;1.892;2022-07-10T02:14:32;19.20;69.90
49238;DHT22;35069;47.906;1.892;2022-07-10T02:16:58;19.20;70.00
49238;DHT22;35069;47.906;1.892;2022-07-10T02:19:23;19.20;70.10
49238;DHT22;35069;47.906;1.892;2022-07-10T02:21:49;19.10;70.40
49238;DHT22;35069;47.906;1.892;2022-07-10T02:24:15;19.00;70.70
49238;DHT22;35069;47.906;1.892;2022-07-10T02:26:41;18.90;71.00
49238;DHT22;35069;47.906;1.892;2022-07-10T02:29:06;19.00;71.10
49238;DHT22;35069;47.906;1.892;2022-07-10T02:31:32;18.90;71.30
49238;DHT22;35069;47.906;1.892;2022-07-10T02:34:00;18.80;71.70
49238;DHT22;35069;47.906;1.892;2022-07-10T02:36:26;18.60;72.20
49238;DHT22;35069;47.906;1.892;2022-07-10T02:38:51;18.60;72.80
49238;DHT22;35069;47.906;1.892;2022-07-10T02:41:17;18.60;72.80
49238;DHT22;35069;47.906;1.892;2022-07-10T02:43:43;18.40;73.40
49238;DHT22;35069;47.906;1.892;2022-07-10T02:46:08;18.60;73.40
49238;DHT22;35069;47.906;1.892;2022-07-10T02:48:34;18.60;73.60
49238;DHT22;35069;47.906;1.892;2022-07-10T02:51:00;18.50;74.10
49238;DHT22;35069;47.906;1.892;2022-07-10T02:53:25;18.50;74.20
49238;DHT22;35069;47.906;1.892;2022-07-10T02:55:51;18.50;74.30
49238;DHT22;35069;47.906;1.892;2022-07-10T02:58:17;18.30;74.90
49238;DHT22;35069;47.906;1.892;2022-07-10T03:00:43;18.20;75.50
49238;DHT22;35069;47.906;1.892;2022-07-10T03:03:08;18.10;76.10
49238;DHT22;35069;47.906;1.892;2022-07-10T03:05:34;18.10;76.30
49238;DHT22;35069;47.906;1.892;2022-07-10T03:08:00;18.20;76.20
49238;DHT22;35069;47.906;1.892;2022-07-10T03:10:25;18.30;75.90
49238;DHT22;35069;47.906;1.892;2022-07-10T03:12:51;18.30;76.10
49238;DHT22;35069;47.906;1.892;2022-07-10T03:15:17;18.20;76.40
49238;DHT22;35069;47.906;1.892;2022-07-10T03:17:43;18.30;76.10
49238;DHT22;35069;47.906;1.892;2022-07-10T03:20:10;18.40;76.10
49238;DHT22;35069;47.906;1.892;2022-07-10T03:22:36;18.50;75.90
49238;DHT22;35069;47.906;1.892;2022-07-10T03:25:02;18.50;75.70
49238;DHT22;35069;47.906;1.892;2022-07-10T03:27:28;18.50;75.70
49238;DHT22;35069;47.906;1.892;2022-07-10T03:29:53;18.40;76.10
49238;DHT22;35069;47.906;1.892;2022-07-10T03:32:19;18.50;75.90
49238;DHT22;35069;47.906;1.892;2022-07-10T03:34:44;18.50;76.20
49238;DHT22;35069;47.906;1.892;2022-07-10T03:37:10;18.50;76.30
49238;DHT22;35069;47.906;1.892;2022-07-10T03:39:39;18.50;76.10
49238;DHT22;35069;47.906;1.892;2022-07-10T03:42:07;18.50;76.40
49238;DHT22;35069;47.906;1.892;2022-07-10T03:44:33;18.40;76.60
49238;DHT22;35069;47.906;1.892;2022-07-10T03:46:59;18.30;76.90
49238;DHT22;35069;47.906;1.892;2022-07-10T03:49:25;18.20;77.30
49238;DHT22;35069;47.906;1.892;2022-07-10T03:51:51;18.20;77.70
49238;DHT22;35069;47.906;1.892;2022-07-10T03:54:16;18.20;77.80
49238;DHT22;35069;47.906;1.892;2022-07-10T03:56:42;18.10;78.30
49238;DHT22;35069;47.906;1.892;2022-07-10T03:59:26;18.00;78.50
49238;DHT22;35069;47.906;1.892;2022-07-10T04:01:51;17.80;79.20
49238;DHT22;35069;47.906;1.892;2022-07-10T04:04:17;17.90;79.20
49238;DHT22;35069;47.906;1.892;2022-07-10T04:06:43;17.70;79.90
49238;DHT22;35069;47.906;1.892;2022-07-10T04:09:08;17.70;80.40
49238;DHT22;35069;47.906;1.892;2022-07-10T04:11:34;17.60;81.10
49238;DHT22;35069;47.906;1.892;2022-07-10T04:13:59;17.50;81.80
49238;DHT22;35069;47.906;1.892;2022-07-10T04:16:25;17.50;82.30
49238;DHT22;35069;47.906;1.892;2022-07-10T04:18:51;17.40;82.70
49238;DHT22;35069;47.906;1.892;2022-07-10T04:21:16;17.30;83.60
49238;DHT22;35069;47.906;1.892;2022-07-10T04:23:42;17.20;84.40
49238;DHT22;35069;47.906;1.892;2022-07-10T04:26:08;17.10;86.00
49238;DHT22;35069;47.906;1.892;2022-07-10T04:28:33;17.10;86.20
49238;DHT22;35069;47.906;1.892;2022-07-10T04:30:59;17.20;85.90
49238;DHT22;35069;47.906;1.892;2022-07-10T04:33:26;17.30;85.80
49238;DHT22;35069;47.906;1.892;2022-07-10T04:35:51;17.50;85.70
49238;DHT22;35069;47.906;1.892;2022-07-10T04:38:17;17.50;85.70
49238;DHT22;35069;47.906;1.892;2022-07-10T04:40:43;17.30;86.70
49238;DHT22;35069;47.906;1.892;2022-07-10T04:43:08;17.30;87.40
49238;DHT22;35069;47.906;1.892;2022-07-10T04:45:35;17.20;88.80
49238;DHT22;35069;47.906;1.892;2022-07-10T04:48:06;17.30;89.00
49238;DHT22;35069;47.906;1.892;2022-07-10T04:50:32;17.30;89.70
49238;DHT22;35069;47.906;1.892;2022-07-10T04:52:58;17.40;89.40
49238;DHT22;35069;47.906;1.892;2022-07-10T04:55:23;17.60;89.00
49238;DHT22;35069;47.906;1.892;2022-07-10T04:57:49;17.60;88.90
49238;DHT22;35069;47.906;1.892;2022-07-10T05:00:15;17.70;89.50
49238;DHT22;35069;47.906;1.892;2022-07-10T05:02:41;17.80;89.20
49238;DHT22;35069;47.906;1.892;2022-07-10T05:05:08;17.70;89.80
49238;DHT22;35069;47.906;1.892;2022-07-10T05:07:34;17.80;89.40
49238;DHT22;35069;47.906;1.892;2022-07-10T05:10:00;17.90;90.00
49238;DHT22;35069;47.906;1.892;2022-07-10T05:12:26;17.90;89.70
49238;DHT22;35069;47.906;1.892;2022-07-10T05:14:51;17.90;90.40
49238;DHT22;35069;47.906;1.892;2022-07-10T05:17:17;17.90;90.40
49238;DHT22;35069;47.906;1.892;2022-07-10T05:19:42;17.90;90.50
49238;DHT22;35069;47.906;1.892;2022-07-10T05:22:08;17.90;90.70
49238;DHT22;35069;47.906;1.892;2022-07-10T05:24:34;18.10;90.40
49238;DHT22;35069;47.906;1.892;2022-07-10T05:27:00;18.20;90.10
49238;DHT22;35069;47.906;1.892;2022-07-10T05:29:26;18.30;90.00
49238;DHT22;35069;47.906;1.892;2022-07-10T05:31:52;18.10;90.40
49238;DHT22;35069;47.906;1.892;2022-07-10T05:34:17;18.10;90.50
49238;DHT22;35069;47.906;1.892;2022-07-10T05:36:43;18.30;90.20
49238;DHT22;35069;47.906;1.892;2022-07-10T05:39:08;18.40;90.00
49238;DHT22;35069;47.906;1.892;2022-07-10T05:41:34;18.60;89.80
49238;DHT22;35069;47.906;1.892;2022-07-10T05:44:00;18.70;88.90
49238;DHT22;35069;47.906;1.892;2022-07-10T05:46:25;18.70;88.90
49238;DHT22;35069;47.906;1.892;2022-07-10T05:48:51;18.80;88.30
49238;DHT22;35069;47.906;1.892;2022-07-10T05:51:17;18.70;88.60
49238;DHT22;35069;47.906;1.892;2022-07-10T05:53:42;18.90;88.10
49238;DHT22;35069;47.906;1.892;2022-07-10T05:56:08;19.10;87.50
49238;DHT22;35069;47.906;1.892;2022-07-10T05:58:33;19.00;87.70
49238;DHT22;35069;47.906;1.892;2022-07-10T06:00:59;19.00;88.30
49238;DHT22;35069;47.906;1.892;2022-07-10T06:03:24;19.20;88.40
49238;DHT22;35069;47.906;1.892;2022-07-10T06:05:50;19.50;87.30
49238;DHT22;35069;47.906;1.892;2022-07-10T06:08:16;20.00;86.10
49238;DHT22;35069;47.906;1.892;2022-07-10T06:10:41;20.20;84.50
49238;DHT22;35069;47.906;1.892;2022-07-10T06:13:10;20.50;83.00
49238;DHT22;35069;47.906;1.892;2022-07-10T06:15:35;20.40;82.10
49238;DHT22;35069;47.906;1.892;2022-07-10T06:18:02;20.50;81.80
49238;DHT22;35069;47.906;1.892;2022-07-10T06:20:27;20.60;81.50
49238;DHT22;35069;47.906;1.892;2022-07-10T06:22:53;20.60;80.60
49238;DHT22;35069;47.906;1.892;2022-07-10T06:25:19;20.60;81.20
49238;DHT22;35069;47.906;1.892;2022-07-10T06:27:45;20.70;81.00
49238;DHT22;35069;47.906;1.892;2022-07-10T06:30:10;21.20;80.50
49238;DHT22;35069;47.906;1.892;2022-07-10T06:32:36;21.10;79.50
49238;DHT22;35069;47.906;1.892;2022-07-10T06:35:02;21.20;79.10
49238;DHT22;35069;47.906;1.892;2022-07-10T06:37:30;21.50;78.80
49238;DHT22;35069;47.906;1.892;2022-07-10T06:39:55;21.70;78.10
49238;DHT22;35069;47.906;1.892;2022-07-10T06:42:21;21.40;78.10
49238;DHT22;35069;47.906;1.892;2022-07-10T06:44:46;21.80;77.60
49238;DHT22;35069;47.906;1.892;2022-07-10T06:47:14;22.00;75.90
49238;DHT22;35069;47.906;1.892;2022-07-10T06:49:59;22.20;76.50
49238;DHT22;35069;47.906;1.892;2022-07-10T06:52:26;22.10;76.40
49238;DHT22;35069;47.906;1.892;2022-07-10T06:54:52;22.50;76.10
49238;DHT22;35069;47.906;1.892;2022-07-10T06:57:18;23.10;74.60
49238;DHT22;35069;47.906;1.892;2022-07-10T06:59:45;23.20;73.80
49238;DHT22;35069;47.906;1.892;2022-07-10T07:02:11;23.20;73.00
49238;DHT22;35069;47.906;1.892;2022-07-10T07:04:36;23.70;72.80
49238;DHT22;35069;47.906;1.892;2022-07-10T07:07:03;24.20;71.80
49238;DHT22;35069;47.906;1.892;2022-07-10T07:09:28;24.40;70.10
49238;DHT22;35069;47.906;1.892;2022-07-10T07:11:54;24.80;69.20
49238;DHT22;35069;47.906;1.892;2022-07-10T07:14:20;25.60;68.30
49238;DHT22;35069;47.906;1.892;2022-07-10T07:16:45;26.30;65.20
49238;DHT22;35069;47.906;1.892;2022-07-10T07:19:22;26.80;64.40
49238;DHT22;35069;47.906;1.892;2022-07-10T07:21:56;26.90;62.30
49238;DHT22;35069;47.906;1.892;2022-07-10T07:24:40;27.30;61.60
49238;DHT22;35069;47.906;1.892;2022-07-10T07:27:06;26.70;61.70
49238;DHT22;35069;47.906;1.892;2022-07-10T07:29:31;26.70;61.90
49238;DHT22;35069;47.906;1.892;2022-07-10T07:31:57;27.00;61.50
49238;DHT22;35069;47.906;1.892;2022-07-10T07:34:24;27.50;60.70
49238;DHT22;35069;47.906;1.892;2022-07-10T07:36:50;28.30;59.50
49238;DHT22;35069;47.906;1.892;2022-07-10T07:39:15;29.30;57.10
49238;DHT22;35069;47.906;1.892;2022-07-10T07:41:41;30.70;55.20
49238;DHT22;35069;47.906;1.892;2022-07-10T07:44:06;32.00;53.20
49238;DHT22;35069;47.906;1.892;2022-07-10T07:46:32;31.20;51.40
49238;DHT22;35069;47.906;1.892;2022-07-10T07:48:57;30.60;51.40
49238;DHT22;35069;47.906;1.892;2022-07-10T07:51:23;29.00;51.50
49238;DHT22;35069;47.906;1.892;2022-07-10T07:53:49;29.20;54.00
49238;DHT22;35069;47.906;1.892;2022-07-10T07:56:14;28.80;54.00
49238;DHT22;35069;47.906;1.892;2022-07-10T07:58:40;30.00;53.10
49238;DHT22;35069;47.906;1.892;2022-07-10T08:01:05;30.70;52.30
49238;DHT22;35069;47.906;1.892;2022-07-10T08:03:31;31.40;50.70
49238;DHT22;35069;47.906;1.892;2022-07-10T08:05:57;31.00;50.00
49238;DHT22;35069;47.906;1.892;2022-07-10T08:08:23;32.10;49.50
49238;DHT22;35069;47.906;1.892;2022-07-10T08:10:48;33.10;47.60
49238;DHT22;35069;47.906;1.892;2022-07-10T08:13:14;33.20;46.90
49238;DHT22;35069;47.906;1.892;2022-07-10T08:15:39;33.90;45.50
49238;DHT22;35069;47.906;1.892;2022-07-10T08:18:05;33.30;45.50
49238;DHT22;35069;47.906;1.892;2022-07-10T08:20:32;32.40;44.70
49238;DHT22;35069;47.906;1.892;2022-07-10T08:22:58;32.40;44.90
49238;DHT22;35069;47.906;1.892;2022-07-10T08:25:24;31.70;45.70
49238;DHT22;35069;47.906;1.892;2022-07-10T08:27:49;32.70;45.80
49238;DHT22;35069;47.906;1.892;2022-07-10T08:30:15;33.90;45.00
49238;DHT22;35069;47.906;1.892;2022-07-10T08:32:41;33.90;44.30
49238;DHT22;35069;47.906;1.892;2022-07-10T08:35:07;34.40;44.30
49238;DHT22;35069;47.906;1.892;2022-07-10T08:37:41;35.80;42.40
49238;DHT22;35069;47.906;1.892;2022-07-10T08:40:09;35.80;41.70
49238;DHT22;35069;47.906;1.892;2022-07-10T08:42:35;36.10;40.10
49238;DHT22;35069;47.906;1.892;2022-07-10T08:45:01;35.90;38.80
49238;DHT22;35069;47.906;1.892;2022-07-10T08:47:26;35.90;39.10
49238;DHT22;35069;47.906;1.892;2022-07-10T08:49:56;36.90;38.90
49238;DHT22;35069;47.906;1.892;2022-07-10T08:52:34;39.00;37.70
49238;DHT22;35069;47.906;1.892;2022-07-10T08:55:01;39.40;35.50
49238;DHT22;35069;47.906;1.892;2022-07-10T08:57:28;38.90;35.40
49238;DHT22;35069;47.906;1.892;2022-07-10T08:59:57;38.90;35.80
49238;DHT22;35069;47.906;1.892;2022-07-10T09:02:22;39.20;35.50
49238;DHT22;35069;47.906;1.892;2022-07-10T09:04:48;37.90;35.30
49238;DHT22;35069;47.906;1.892;2022-07-10T09:07:14;36.90;35.00
49238;DHT22;35069;47.906;1.892;2022-07-10T09:09:56;35.30;35.40
49238;DHT22;35069;47.906;1.892;2022-07-10T09:12:22;34.10;36.30
49238;DHT22;35069;47.906;1.892;2022-07-10T09:14:49;33.20;37.80
49238;DHT22;35069;47.906;1.892;2022-07-10T09:17:16;31.90;38.20
49238;DHT22;35069;47.906;1.892;2022-07-10T09:19:43;30.30;40.70
49238;DHT22;35069;47.906;1.892;2022-07-10T09:22:10;29.80;43.20
49238;DHT22;35069;47.906;1.892;2022-07-10T09:27:06;28.20;44.30
49238;DHT22;35069;47.906;1.892;2022-07-10T09:29:44;27.80;44.40
49238;DHT22;35069;47.906;1.892;2022-07-10T09:32:09;27.80;44.00
49238;DHT22;35069;47.906;1.892;2022-07-10T09:34:44;28.70;44.00
49238;DHT22;35069;47.906;1.892;2022-07-10T09:40:01;32.10;39.60
49238;DHT22;35069;47.906;1.892;2022-07-10T09:42:31;33.60;36.90
49238;DHT22;35069;47.906;1.892;2022-07-10T09:50:29;34.30;34.30
49238;DHT22;35069;47.906;1.892;2022-07-10T09:53:00;34.80;34.20
49238;DHT22;35069;47.906;1.892;2022-07-10T09:55:28;35.50;35.20
49238;DHT22;35069;47.906;1.892;2022-07-10T09:57:58;36.40;34.10
49238;DHT22;35069;47.906;1.892;2022-07-10T10:00:27;36.50;33.40
49238;DHT22;35069;47.906;1.892;2022-07-10T10:02:57;38.10;33.70
49238;DHT22;35069;47.906;1.892;2022-07-10T10:05:32;39.00;32.80
49238;DHT22;35069;47.906;1.892;2022-07-10T10:08:22;40.00;30.70
49238;DHT22;35069;47.906;1.892;2022-07-10T10:10:50;40.80;29.70
49238;DHT22;35069;47.906;1.892;2022-07-10T10:13:21;39.80;30.60
49238;DHT22;35069;47.906;1.892;2022-07-10T10:15:48;39.00;30.50
49238;DHT22;35069;47.906;1.892;2022-07-10T10:18:22;39.10;30.60
49238;DHT22;35069;47.906;1.892;2022-07-10T10:20:49;40.80;30.00
49238;DHT22;35069;47.906;1.892;2022-07-10T10:23:17;40.80;29.80
49238;DHT22;35069;47.906;1.892;2022-07-10T10:25:44;41.60;30.50
49238;DHT22;35069;47.906;1.892;2022-07-10T10:28:11;41.60;29.80
49238;DHT22;35069;47.906;1.892;2022-07-10T10:30:44;40.10;30.30
49238;DHT22;35069;47.906;1.892;2022-07-10T10:35:58;40.40;29.40
49238;DHT22;35069;47.906;1.892;2022-07-10T10:38:24;41.00;29.90
49238;DHT22;35069;47.906;1.892;2022-07-10T10:40:50;42.60;29.50
49238;DHT22;35069;47.906;1.892;2022-07-10T10:43:20;42.40;28.80
49238;DHT22;35069;47.906;1.892;2022-07-10T10:45:49;41.80;29.30
49238;DHT22;35069;47.906;1.892;2022-07-10T10:48:16;42.90;29.10
49238;DHT22;35069;47.906;1.892;2022-07-10T10:50:52;44.90;28.80
49238;DHT22;35069;47.906;1.892;2022-07-10T10:53:36;43.40;28.60
49238;DHT22;35069;47.906;1.892;2022-07-10T10:58:40;42.90;28.40
49238;DHT22;35069;47.906;1.892;2022-07-10T11:01:25;43.50;28.50
49238;DHT22;35069;47.906;1.892;2022-07-10T11:04:17;41.20;28.50
49238;DHT22;35069;47.906;1.892;2022-07-10T11:06:50;41.30;29.10
49238;DHT22;35069;47.906;1.892;2022-07-10T11:09:32;39.90;28.40
49238;DHT22;35069;47.906;1.892;2022-07-10T11:14:35;34.40;31.50
49238;DHT22;35069;47.906;1.892;2022-07-10T11:17:02;32.80;33.10
49238;DHT22;35069;47.906;1.892;2022-07-10T11:19:29;31.40;34.50
49238;DHT22;35069;47.906;1.892;2022-07-10T11:27:52;28.30;39.50
49238;DHT22;35069;47.906;1.892;2022-07-10T11:30:20;27.80;40.60
49238;DHT22;35069;47.906;1.892;2022-07-10T11:32:46;27.90;40.40
49238;DHT22;35069;47.906;1.892;2022-07-10T11:35:13;27.30;40.70
49238;DHT22;35069;47.906;1.892;2022-07-10T11:37:52;27.00;41.60
49238;DHT22;35069;47.906;1.892;2022-07-10T11:40:18;26.70;43.10
49238;DHT22;35069;47.906;1.892;2022-07-10T11:42:51;26.50;42.90
49238;DHT22;35069;47.906;1.892;2022-07-10T11:45:31;26.30;43.50
49238;DHT22;35069;47.906;1.892;2022-07-10T11:47:58;26.30;43.90
49238;DHT22;35069;47.906;1.892;2022-07-10T11:50:25;26.00;44.20
49238;DHT22;35069;47.906;1.892;2022-07-10T11:52:51;26.00;44.60
49238;DHT22;35069;47.906;1.892;2022-07-10T11:55:21;26.20;45.50
49238;DHT22;35069;47.906;1.892;2022-07-10T11:57:47;25.90;45.10
49238;DHT22;35069;47.906;1.892;2022-07-10T12:00:30;26.00;45.10
49238;DHT22;35069;47.906;1.892;2022-07-10T12:03:19;26.10;45.20
49238;DHT22;35069;47.906;1.892;2022-07-10T12:05:45;26.20;45.20
49238;DHT22;35069;47.906;1.892;2022-07-10T12:08:11;26.10;44.80
49238;DHT22;35069;47.906;1.892;2022-07-10T12:10:38;25.90;45.10
49238;DHT22;35069;47.906;1.892;2022-07-10T12:13:14;25.80;45.50
49238;DHT22;35069;47.906;1.892;2022-07-10T12:15:42;25.80;46.20
49238;DHT22;35069;47.906;1.892;2022-07-10T12:18:14;25.70;45.90
49238;DHT22;35069;47.906;1.892;2022-07-10T12:20:40;25.60;46.10
49238;DHT22;35069;47.906;1.892;2022-07-10T12:23:11;25.70;45.90
49238;DHT22;35069;47.906;1.892;2022-07-10T12:25:38;25.70;46.00
49238;DHT22;35069;47.906;1.892;2022-07-10T12:28:04;25.40;46.50
49238;DHT22;35069;47.906;1.892;2022-07-10T12:30:43;25.40;47.10
49238;DHT22;35069;47.906;1.892;2022-07-10T12:33:14;25.40;47.40
49238;DHT22;35069;47.906;1.892;2022-07-10T12:35:54;25.40;47.20
49238;DHT22;35069;47.906;1.892;2022-07-10T12:40:48;25.50;47.20
49238;DHT22;35069;47.906;1.892;2022-07-10T12:43:26;25.60;46.80
49238;DHT22;35069;47.906;1.892;2022-07-10T12:46:28;25.50;47.20
49238;DHT22;35069;47.906;1.892;2022-07-10T12:49:06;25.70;47.40
49238;DHT22;35069;47.906;1.892;2022-07-10T12:51:44;25.60;47.10
49238;DHT22;35069;47.906;1.892;2022-07-10T12:54:33;25.70;47.30
49238;DHT22;35069;47.906;1.892;2022-07-10T12:56:59;25.80;47.40
49238;DHT22;35069;47.906;1.892;2022-07-10T12:59:28;25.60;47.10
49238;DHT22;35069;47.906;1.892;2022-07-10T13:01:54;25.50;47.40
49238;DHT22;35069;47.906;1.892;2022-07-10T13:04:26;25.40;47.30
49238;DHT22;35069;47.906;1.892;2022-07-10T13:07:12;25.50;47.50
49238;DHT22;35069;47.906;1.892;2022-07-10T13:09:39;25.60;47.90
49238;DHT22;35069;47.906;1.892;2022-07-10T13:12:06;25.60;47.60
49238;DHT22;35069;47.906;1.892;2022-07-10T13:14:32;25.70;47.60
49238;DHT22;35069;47.906;1.892;2022-07-10T13:16:57;25.60;47.70
49238;DHT22;35069;47.906;1.892;2022-07-10T13:19:23;25.50;47.90
49238;DHT22;35069;47.906;1.892;2022-07-10T13:21:48;25.50;47.90
49238;DHT22;35069;47.906;1.892;2022-07-10T13:24:14;25.50;47.60
49238;DHT22;35069;47.906;1.892;2022-07-10T13:26:39;25.50;47.70
49238;DHT22;35069;47.906;1.892;2022-07-10T13:29:07;25.50;47.70
49238;DHT22;35069;47.906;1.892;2022-07-10T13:31:33;25.70;47.80
49238;DHT22;35069;47.906;1.892;2022-07-10T13:33:58;25.70;47.60
49238;DHT22;35069;47.906;1.892;2022-07-10T13:36:24;25.70;47.50
49238;DHT22;35069;47.906;1.892;2022-07-10T13:38:50;25.60;47.80
49238;DHT22;35069;47.906;1.892;2022-07-10T13:41:18;25.60;47.90
49238;DHT22;35069;47.906;1.892;2022-07-10T13:43:44;25.60;48.00
49238;DHT22;35069;47.906;1.892;2022-07-10T13:46:09;25.60;48.10
49238;DHT22;35069;47.906;1.892;2022-07-10T13:48:35;25.60;48.20
49238;DHT22;35069;47.906;1.892;2022-07-10T13:51:01;25.70;48.90
49238;DHT22;35069;47.906;1.892;2022-07-10T13:53:26;25.80;48.20
49238;DHT22;35069;47.906;1.892;2022-07-10T13:55:52;26.00;48.10
49238;DHT22;35069;47.906;1.892;2022-07-10T13:58:18;26.10;47.80
49238;DHT22;35069;47.906;1.892;2022-07-10T14:00:45;26.00;47.40
49238;DHT22;35069;47.906;1.892;2022-07-10T14:03:11;26.00;47.30
49238;DHT22;35069;47.906;1.892;2022-07-10T14:05:37;26.00;47.40
49238;DHT22;35069;47.906;1.892;2022-07-10T14:08:02;26.00;47.60
49238;DHT22;35069;47.906;1.892;2022-07-10T14:10:28;26.10;47.50
49238;DHT22;35069;47.906;1.892;2022-07-10T14:12:55;26.00;47.40
49238;DHT22;35069;47.906;1.892;2022-07-10T14:15:21;26.00;47.70
49238;DHT22;35069;47.906;1.892;2022-07-10T14:17:46;26.00;47.60
49238;DHT22;35069;47.906;1.892;2022-07-10T14:20:12;26.00;47.40
49238;DHT22;35069;47.906;1.892;2022-07-10T14:22:37;26.00;47.70
49238;DHT22;35069;47.906;1.892;2022-07-10T14:25:05;26.10;48.40
49238;DHT22;35069;47.906;1.892;2022-07-10T14:27:31;26.10;47.70
49238;DHT22;35069;47.906;1.892;2022-07-10T14:29:57;26.10;47.70
49238;DHT22;35069;47.906;1.892;2022-07-10T14:32:23;26.20;47.70
49238;DHT22;35069;47.906;1.892;2022-07-10T14:34:49;26.20;47.60
49238;DHT22;35069;47.906;1.892;2022-07-10T14:37:15;26.30;47.50
49238;DHT22;35069;47.906;1.892;2022-07-10T14:39:41;26.40;47.40
49238;DHT22;35069;47.906;1.892;2022-07-10T14:42:07;26.40;47.10
49238;DHT22;35069;47.906;1.892;2022-07-10T14:44:34;26.30;47.10
49238;DHT22;35069;47.906;1.892;2022-07-10T14:47:00;26.30;47.10
49238;DHT22;35069;47.906;1.892;2022-07-10T14:49:25;26.30;47.20
49238;DHT22;35069;47.906;1.892;2022-07-10T14:51:51;26.30;47.30
49238;DHT22;35069;47.906;1.892;2022-07-10T14:54:17;26.20;47.00
49238;DHT22;35069;47.906;1.892;2022-07-10T14:56:42;26.20;47.20
49238;DHT22;35069;47.906;1.892;2022-07-10T14:59:09;26.20;47.50
49238;DHT22;35069;47.906;1.892;2022-07-10T15:01:35;26.20;47.50
49238;DHT22;35069;47.906;1.892;2022-07-10T15:04:01;26.20;47.40
49238;DHT22;35069;47.906;1.892;2022-07-10T15:06:27;26.20;47.40
49238;DHT22;35069;47.906;1.892;2022-07-10T15:08:52;26.20;47.50
49238;DHT22;35069;47.906;1.892;2022-07-10T15:11:19;26.20;47.70
49238;DHT22;35069;47.906;1.892;2022-07-10T15:13:49;26.20;47.60
49238;DHT22;35069;47.906;1.892;2022-07-10T15:16:16;26.20;47.60
49238;DHT22;35069;47.906;1.892;2022-07-10T15:18:42;26.30;47.60
49238;DHT22;35069;47.906;1.892;2022-07-10T15:21:08;26.20;47.60
49238;DHT22;35069;47.906;1.892;2022-07-10T15:23:33;26.20;47.60
49238;DHT22;35069;47.906;1.892;2022-07-10T15:25:59;26.20;47.70
49238;DHT22;35069;47.906;1.892;2022-07-10T15:28:25;26.20;47.70
49238;DHT22;35069;47.906;1.892;2022-07-10T15:30:51;26.20;47.80
49238;DHT22;35069;47.906;1.892;2022-07-10T15:33:16;26.30;47.90
49238;DHT22;35069;47.906;1.892;2022-07-10T15:35:42;26.40;48.00
49238;DHT22;35069;47.906;1.892;2022-07-10T15:38:08;26.40;47.80
49238;DHT22;35069;47.906;1.892;2022-07-10T15:40:33;26.40;48.30
49238;DHT22;35069;47.906;1.892;2022-07-10T15:43:00;26.40;47.70
49238;DHT22;35069;47.906;1.892;2022-07-10T15:45:26;26.40;47.80
49238;DHT22;35069;47.906;1.892;2022-07-10T15:47:52;26.40;47.30
49238;DHT22;35069;47.906;1.892;2022-07-10T15:50:18;26.40;47.80
49238;DHT22;35069;47.906;1.892;2022-07-10T15:52:44;26.40;47.70
49238;DHT22;35069;47.906;1.892;2022-07-10T15:55:11;26.40;47.70
49238;DHT22;35069;47.906;1.892;2022-07-10T15:57:37;26.40;47.70